sensor_id;sensor_type;location;lat;lon;timestamp;P1;durP1;ratioP1;P2;durP2;ratioP2
43696;SDS011;29301;47.620;19.560;2023-05-29T00:00:32;0.40;;;0.30;;
43696;SDS011;29301;47.620;19.560;2023-05-29T00:02:58;0.35;;;0.30;;
43696;SDS011;29301;47.620;19.560;2023-05-29T00:05:24;0.40;;;0.32;;
43696;SDS011;29301;47.620;19.560;2023-05-29T00:07:49;0.40;;;0.30;;
43696;SDS011;29301;47.620;19.560;2023-05-29T00:10:15;0.40;;;0.30;;
43696;SDS011;29301;47.620;19.560;2023-05-29T00:12:41;0.40;;;0.30;;
43696;SDS011;29301;47.620;19.560;2023-05-29T00:15:08;0.30;;;0.30;;
43696;SDS011;29301;47.620;19.560;2023-05-29T00:17:35;0.40;;;0.30;;
43696;SDS011;29301;47.620;19.560;2023-05-29T00:20:02;0.40;;;0.30;;
43696;SDS011;29301;47.620;19.560;2023-05-29T00:22:46;0.40;;;0.30;;
43696;SDS011;29301;47.620;19.560;2023-05-29T00:25:11;0.40;;;0.30;;
43696;SDS011;29301;47.620;19.560;2023-05-29T00:27:37;0.40;;;0.32;;
43696;SDS011;29301;47.620;19.560;2023-05-29T00:30:03;0.40;;;0.30;;
43696;SDS011;29301;47.620;19.560;2023-05-29T00:32:29;0.35;;;0.30;;
43696;SDS011;29301;47.620;19.560;2023-05-29T00:34:55;0.40;;;0.30;;
43696;SDS011;29301;47.620;19.560;2023-05-29T00:37:21;0.30;;;0.30;;
43696;SDS011;29301;47.620;19.560;2023-05-29T00:39:48;0.40;;;0.40;;
43696;SDS011;29301;47.620;19.560;2023-05-29T00:42:13;0.40;;;0.30;;
43696;SDS011;29301;47.620;19.560;2023-05-29T00:44:39;0.43;;;0.30;;
43696;SDS011;29301;47.620;19.560;2023-05-29T00:47:05;0.40;;;0.30;;
43696;SDS011;29301;47.620;19.560;2023-05-29T00:49:31;0.40;;;0.30;;
43696;SDS011;29301;47.620;19.560;2023-05-29T00:51:58;0.50;;;0.40;;
43696;SDS011;29301;47.620;19.560;2023-05-29T00:54:26;0.40;;;0.30;;
43696;SDS011;29301;47.620;19.560;2023-05-29T00:56:53;0.40;;;0.30;;
43696;SDS011;29301;47.620;19.560;2023-05-29T00:59:19;0.40;;;0.30;;
43696;SDS011;29301;47.620;19.560;2023-05-29T01:01:47;0.40;;;0.40;;
43696;SDS011;29301;47.620;19.560;2023-05-29T01:04:15;0.50;;;0.40;;
43696;SDS011;29301;47.620;19.560;2023-05-29T01:06:42;0.45;;;0.40;;
43696;SDS011;29301;47.620;19.560;2023-05-29T01:09:08;0.30;;;0.30;;
43696;SDS011;29301;47.620;19.560;2023-05-29T01:14:29;0.30;;;0.30;;
43696;SDS011;29301;47.620;19.560;2023-05-29T01:17:10;0.40;;;0.30;;
43696;SDS011;29301;47.620;19.560;2023-05-29T01:27:46;0.40;;;0.35;;
43696;SDS011;29301;47.620;19.560;2023-05-29T01:30:14;0.40;;;0.30;;
43696;SDS011;29301;47.620;19.560;2023-05-29T01:32:40;0.40;;;0.30;;
43696;SDS011;29301;47.620;19.560;2023-05-29T01:35:06;0.40;;;0.40;;
43696;SDS011;29301;47.620;19.560;2023-05-29T01:37:33;0.50;;;0.40;;
43696;SDS011;29301;47.620;19.560;2023-05-29T01:39:59;0.40;;;0.30;;
43696;SDS011;29301;47.620;19.560;2023-05-29T01:42:25;0.40;;;0.30;;
43696;SDS011;29301;47.620;19.560;2023-05-29T01:44:52;0.30;;;0.30;;
43696;SDS011;29301;47.620;19.560;2023-05-29T01:47:19;0.40;;;0.40;;
43696;SDS011;29301;47.620;19.560;2023-05-29T01:49:45;0.40;;;0.40;;
43696;SDS011;29301;47.620;19.560;2023-05-29T01:52:14;0.40;;;0.30;;
43696;SDS011;29301;47.620;19.560;2023-05-29T01:54:39;0.45;;;0.30;;
43696;SDS011;29301;47.620;19.560;2023-05-29T01:57:05;0.40;;;0.30;;
43696;SDS011;29301;47.620;19.560;2023-05-29T01:59:32;0.40;;;0.30;;
43696;SDS011;29301;47.620;19.560;2023-05-29T02:02:04;0.40;;;0.30;;
43696;SDS011;29301;47.620;19.560;2023-05-29T02:04:33;0.40;;;0.30;;
43696;SDS011;29301;47.620;19.560;2023-05-29T02:06:59;0.40;;;0.30;;
43696;SDS011;29301;47.620;19.560;2023-05-29T02:09:25;0.40;;;0.30;;
43696;SDS011;29301;47.620;19.560;2023-05-29T02:11:51;0.40;;;0.30;;
43696;SDS011;29301;47.620;19.560;2023-05-29T02:14:16;0.50;;;0.40;;
43696;SDS011;29301;47.620;19.560;2023-05-29T02:16:42;0.50;;;0.40;;
43696;SDS011;29301;47.620;19.560;2023-05-29T02:19:09;0.50;;;0.40;;
43696;SDS011;29301;47.620;19.560;2023-05-29T02:21:37;0.40;;;0.40;;
43696;SDS011;29301;47.620;19.560;2023-05-29T02:24:05;0.40;;;0.40;;
43696;SDS011;29301;47.620;19.560;2023-05-29T02:26:32;0.50;;;0.40;;
43696;SDS011;29301;47.620;19.560;2023-05-29T02:28:57;0.40;;;0.30;;
43696;SDS011;29301;47.620;19.560;2023-05-29T02:31:24;0.40;;;0.40;;
43696;SDS011;29301;47.620;19.560;2023-05-29T02:33:49;0.40;;;0.40;;
43696;SDS011;29301;47.620;19.560;2023-05-29T02:36:15;0.40;;;0.30;;
43696;SDS011;29301;47.620;19.560;2023-05-29T02:38:41;0.50;;;0.40;;
43696;SDS011;29301;47.620;19.560;2023-05-29T02:41:07;0.40;;;0.30;;
43696;SDS011;29301;47.620;19.560;2023-05-29T02:43:32;0.40;;;0.30;;
43696;SDS011;29301;47.620;19.560;2023-05-29T02:45:58;0.40;;;0.40;;
43696;SDS011;29301;47.620;19.560;2023-05-29T02:48:24;0.40;;;0.40;;
43696;SDS011;29301;47.620;19.560;2023-05-29T02:50:51;0.40;;;0.30;;
43696;SDS011;29301;47.620;19.560;2023-05-29T02:53:17;0.40;;;0.40;;
43696;SDS011;29301;47.620;19.560;2023-05-29T02:55:43;0.50;;;0.40;;
43696;SDS011;29301;47.620;19.560;2023-05-29T02:58:09;0.40;;;0.40;;
43696;SDS011;29301;47.620;19.560;2023-05-29T03:00:36;0.40;;;0.40;;
43696;SDS011;29301;47.620;19.560;2023-05-29T03:03:02;0.40;;;0.30;;
43696;SDS011;29301;47.620;19.560;2023-05-29T03:05:29;0.40;;;0.40;;
43696;SDS011;29301;47.620;19.560;2023-05-29T03:07:54;0.40;;;0.30;;
43696;SDS011;29301;47.620;19.560;2023-05-29T03:10:20;0.50;;;0.40;;
43696;SDS011;29301;47.620;19.560;2023-05-29T03:12:46;0.30;;;0.30;;
43696;SDS011;29301;47.620;19.560;2023-05-29T03:15:12;0.50;;;0.40;;
43696;SDS011;29301;47.620;19.560;2023-05-29T03:17:37;0.40;;;0.40;;
43696;SDS011;29301;47.620;19.560;2023-05-29T03:20:03;0.40;;;0.40;;
43696;SDS011;29301;47.620;19.560;2023-05-29T03:22:35;0.50;;;0.40;;
43696;SDS011;29301;47.620;19.560;2023-05-29T03:25:02;0.40;;;0.40;;
43696;SDS011;29301;47.620;19.560;2023-05-29T03:27:28;0.40;;;0.30;;
43696;SDS011;29301;47.620;19.560;2023-05-29T03:29:54;0.40;;;0.38;;
43696;SDS011;29301;47.620;19.560;2023-05-29T03:32:20;0.40;;;0.30;;
43696;SDS011;29301;47.620;19.560;2023-05-29T03:34:46;0.50;;;0.40;;
43696;SDS011;29301;47.620;19.560;2023-05-29T03:37:12;0.50;;;0.40;;
43696;SDS011;29301;47.620;19.560;2023-05-29T03:39:38;0.50;;;0.40;;
43696;SDS011;29301;47.620;19.560;2023-05-29T03:42:04;0.50;;;0.40;;
43696;SDS011;29301;47.620;19.560;2023-05-29T03:44:30;0.40;;;0.40;;
43696;SDS011;29301;47.620;19.560;2023-05-29T03:46:56;0.40;;;0.40;;
43696;SDS011;29301;47.620;19.560;2023-05-29T03:49:21;0.40;;;0.32;;
43696;SDS011;29301;47.620;19.560;2023-05-29T03:51:47;0.60;;;0.40;;
43696;SDS011;29301;47.620;19.560;2023-05-29T03:54:12;0.40;;;0.30;;
43696;SDS011;29301;47.620;19.560;2023-05-29T03:56:38;0.40;;;0.40;;
43696;SDS011;29301;47.620;19.560;2023-05-29T03:59:04;0.60;;;0.40;;
43696;SDS011;29301;47.620;19.560;2023-05-29T04:01:29;0.40;;;0.40;;
43696;SDS011;29301;47.620;19.560;2023-05-29T04:03:55;0.52;;;0.40;;
43696;SDS011;29301;47.620;19.560;2023-05-29T04:06:21;0.60;;;0.40;;
43696;SDS011;29301;47.620;19.560;2023-05-29T04:08:47;0.50;;;0.40;;
43696;SDS011;29301;47.620;19.560;2023-05-29T04:11:13;0.55;;;0.40;;
43696;SDS011;29301;47.620;19.560;2023-05-29T04:13:39;0.50;;;0.40;;
43696;SDS011;29301;47.620;19.560;2023-05-29T04:16:05;0.50;;;0.40;;
43696;SDS011;29301;47.620;19.560;2023-05-29T04:18:32;0.50;;;0.40;;
43696;SDS011;29301;47.620;19.560;2023-05-29T04:20:57;0.40;;;0.30;;
43696;SDS011;29301;47.620;19.560;2023-05-29T04:23:23;0.40;;;0.30;;
43696;SDS011;29301;47.620;19.560;2023-05-29T04:25:49;0.40;;;0.38;;
43696;SDS011;29301;47.620;19.560;2023-05-29T04:28:18;0.40;;;0.30;;
43696;SDS011;29301;47.620;19.560;2023-05-29T04:30:46;0.40;;;0.40;;
43696;SDS011;29301;47.620;19.560;2023-05-29T04:33:12;0.50;;;0.40;;
43696;SDS011;29301;47.620;19.560;2023-05-29T04:35:39;0.40;;;0.30;;
43696;SDS011;29301;47.620;19.560;2023-05-29T04:38:08;0.45;;;0.40;;
43696;SDS011;29301;47.620;19.560;2023-05-29T04:40:34;0.50;;;0.40;;
43696;SDS011;29301;47.620;19.560;2023-05-29T04:43:01;0.40;;;0.40;;
43696;SDS011;29301;47.620;19.560;2023-05-29T04:45:30;0.40;;;0.30;;
43696;SDS011;29301;47.620;19.560;2023-05-29T04:47:55;0.40;;;0.30;;
43696;SDS011;29301;47.620;19.560;2023-05-29T04:50:21;0.40;;;0.40;;
43696;SDS011;29301;47.620;19.560;2023-05-29T04:52:51;0.40;;;0.30;;
43696;SDS011;29301;47.620;19.560;2023-05-29T04:55:16;0.30;;;0.30;;
43696;SDS011;29301;47.620;19.560;2023-05-29T04:57:42;0.30;;;0.30;;
43696;SDS011;29301;47.620;19.560;2023-05-29T05:00:08;0.40;;;0.30;;
43696;SDS011;29301;47.620;19.560;2023-05-29T05:02:36;0.40;;;0.30;;
43696;SDS011;29301;47.620;19.560;2023-05-29T05:05:02;0.30;;;0.30;;
43696;SDS011;29301;47.620;19.560;2023-05-29T05:07:28;0.47;;;0.40;;
43696;SDS011;29301;47.620;19.560;2023-05-29T05:09:54;0.45;;;0.35;;
43696;SDS011;29301;47.620;19.560;2023-05-29T05:12:20;0.40;;;0.30;;
43696;SDS011;29301;47.620;19.560;2023-05-29T05:14:46;0.40;;;0.30;;
43696;SDS011;29301;47.620;19.560;2023-05-29T05:17:12;0.40;;;0.30;;
43696;SDS011;29301;47.620;19.560;2023-05-29T05:19:37;0.40;;;0.30;;
43696;SDS011;29301;47.620;19.560;2023-05-29T05:22:03;0.40;;;0.30;;
43696;SDS011;29301;47.620;19.560;2023-05-29T05:24:29;0.40;;;0.30;;
43696;SDS011;29301;47.620;19.560;2023-05-29T05:26:54;0.40;;;0.30;;
43696;SDS011;29301;47.620;19.560;2023-05-29T05:29:20;0.40;;;0.30;;
43696;SDS011;29301;47.620;19.560;2023-05-29T05:31:46;0.40;;;0.30;;
43696;SDS011;29301;47.620;19.560;2023-05-29T05:34:11;0.30;;;0.30;;
43696;SDS011;29301;47.620;19.560;2023-05-29T05:36:37;0.40;;;0.30;;
43696;SDS011;29301;47.620;19.560;2023-05-29T05:39:03;0.30;;;0.30;;
43696;SDS011;29301;47.620;19.560;2023-05-29T05:41:28;0.30;;;0.30;;
43696;SDS011;29301;47.620;19.560;2023-05-29T05:43:54;0.30;;;0.30;;
43696;SDS011;29301;47.620;19.560;2023-05-29T05:46:21;0.30;;;0.30;;
43696;SDS011;29301;47.620;19.560;2023-05-29T05:48:46;0.30;;;0.30;;
43696;SDS011;29301;47.620;19.560;2023-05-29T05:51:12;0.40;;;0.30;;
43696;SDS011;29301;47.620;19.560;2023-05-29T05:53:38;0.40;;;0.30;;
43696;SDS011;29301;47.620;19.560;2023-05-29T05:56:04;0.40;;;0.30;;
43696;SDS011;29301;47.620;19.560;2023-05-29T05:58:30;0.40;;;0.30;;
43696;SDS011;29301;47.620;19.560;2023-05-29T06:00:56;0.30;;;0.30;;
43696;SDS011;29301;47.620;19.560;2023-05-29T06:03:22;0.40;;;0.30;;
43696;SDS011;29301;47.620;19.560;2023-05-29T06:05:48;0.30;;;0.30;;
43696;SDS011;29301;47.620;19.560;2023-05-29T06:08:15;0.30;;;0.30;;
43696;SDS011;29301;47.620;19.560;2023-05-29T06:10:41;0.30;;;0.30;;
43696;SDS011;29301;47.620;19.560;2023-05-29T06:13:06;0.30;;;0.30;;
43696;SDS011;29301;47.620;19.560;2023-05-29T06:15:32;0.30;;;0.20;;
43696;SDS011;29301;47.620;19.560;2023-05-29T06:17:58;0.30;;;0.30;;
43696;SDS011;29301;47.620;19.560;2023-05-29T06:20:23;0.30;;;0.30;;
43696;SDS011;29301;47.620;19.560;2023-05-29T06:22:49;0.30;;;0.20;;
43696;SDS011;29301;47.620;19.560;2023-05-29T06:25:18;0.30;;;0.20;;
43696;SDS011;29301;47.620;19.560;2023-05-29T06:27:44;0.30;;;0.20;;
43696;SDS011;29301;47.620;19.560;2023-05-29T06:30:11;0.40;;;0.20;;
43696;SDS011;29301;47.620;19.560;2023-05-29T06:32:37;0.30;;;0.30;;
43696;SDS011;29301;47.620;19.560;2023-05-29T06:35:03;0.30;;;0.20;;
43696;SDS011;29301;47.620;19.560;2023-05-29T06:37:31;0.30;;;0.20;;
43696;SDS011;29301;47.620;19.560;2023-05-29T06:39:57;0.30;;;0.20;;
43696;SDS011;29301;47.620;19.560;2023-05-29T06:42:22;0.35;;;0.20;;
43696;SDS011;29301;47.620;19.560;2023-05-29T06:44:48;0.40;;;0.20;;
43696;SDS011;29301;47.620;19.560;2023-05-29T06:47:13;0.40;;;0.20;;
43696;SDS011;29301;47.620;19.560;2023-05-29T06:49:39;0.30;;;0.20;;
43696;SDS011;29301;47.620;19.560;2023-05-29T06:52:05;0.40;;;0.20;;
43696;SDS011;29301;47.620;19.560;2023-05-29T06:54:31;0.28;;;0.20;;
43696;SDS011;29301;47.620;19.560;2023-05-29T06:56:56;0.30;;;0.20;;
43696;SDS011;29301;47.620;19.560;2023-05-29T06:59:22;0.30;;;0.20;;
43696;SDS011;29301;47.620;19.560;2023-05-29T07:01:48;0.30;;;0.20;;
43696;SDS011;29301;47.620;19.560;2023-05-29T07:04:13;0.20;;;0.20;;
43696;SDS011;29301;47.620;19.560;2023-05-29T07:06:39;0.30;;;0.10;;
43696;SDS011;29301;47.620;19.560;2023-05-29T07:09:05;0.25;;;0.20;;
43696;SDS011;29301;47.620;19.560;2023-05-29T07:11:31;0.30;;;0.17;;
43696;SDS011;29301;47.620;19.560;2023-05-29T07:13:56;0.30;;;0.20;;
43696;SDS011;29301;47.620;19.560;2023-05-29T07:16:22;0.20;;;0.13;;
43696;SDS011;29301;47.620;19.560;2023-05-29T07:18:47;0.30;;;0.20;;
43696;SDS011;29301;47.620;19.560;2023-05-29T07:21:13;0.20;;;0.20;;
43696;SDS011;29301;47.620;19.560;2023-05-29T07:23:39;0.15;;;0.10;;
43696;SDS011;29301;47.620;19.560;2023-05-29T07:26:05;0.20;;;0.20;;
43696;SDS011;29301;47.620;19.560;2023-05-29T07:28:31;0.20;;;0.10;;
43696;SDS011;29301;47.620;19.560;2023-05-29T07:30:56;0.15;;;0.10;;
43696;SDS011;29301;47.620;19.560;2023-05-29T07:33:22;0.20;;;0.20;;
43696;SDS011;29301;47.620;19.560;2023-05-29T07:35:48;0.15;;;0.15;;
43696;SDS011;29301;47.620;19.560;2023-05-29T07:38:14;0.10;;;0.10;;
43696;SDS011;29301;47.620;19.560;2023-05-29T07:40:39;0.10;;;0.10;;
43696;SDS011;29301;47.620;19.560;2023-05-29T07:43:05;0.17;;;0.17;;
43696;SDS011;29301;47.620;19.560;2023-05-29T07:45:31;0.10;;;0.10;;
43696;SDS011;29301;47.620;19.560;2023-05-29T07:47:56;0.10;;;0.10;;
43696;SDS011;29301;47.620;19.560;2023-05-29T07:50:22;0.10;;;0.10;;
43696;SDS011;29301;47.620;19.560;2023-05-29T07:52:47;0.10;;;0.10;;
43696;SDS011;29301;47.620;19.560;2023-05-29T07:55:14;0.10;;;0.10;;
43696;SDS011;29301;47.620;19.560;2023-05-29T07:57:40;0.10;;;0.10;;
43696;SDS011;29301;47.620;19.560;2023-05-29T08:00:06;0.15;;;0.15;;
43696;SDS011;29301;47.620;19.560;2023-05-29T08:02:33;0.10;;;0.10;;
43696;SDS011;29301;47.620;19.560;2023-05-29T08:04:59;0.10;;;0.10;;
43696;SDS011;29301;47.620;19.560;2023-05-29T08:07:25;0.10;;;0.10;;
43696;SDS011;29301;47.620;19.560;2023-05-29T08:09:53;0.10;;;0.10;;
43696;SDS011;29301;47.620;19.560;2023-05-29T08:12:18;0.10;;;0.10;;
43696;SDS011;29301;47.620;19.560;2023-05-29T08:14:45;0.20;;;0.20;;
43696;SDS011;29301;47.620;19.560;2023-05-29T08:17:11;0.10;;;0.10;;
43696;SDS011;29301;47.620;19.560;2023-05-29T08:19:36;0.10;;;0.10;;
43696;SDS011;29301;47.620;19.560;2023-05-29T08:22:02;0.20;;;0.20;;
43696;SDS011;29301;47.620;19.560;2023-05-29T08:24:28;0.17;;;0.17;;
43696;SDS011;29301;47.620;19.560;2023-05-29T08:26:54;0.20;;;0.20;;
43696;SDS011;29301;47.620;19.560;2023-05-29T08:29:19;0.10;;;0.10;;
43696;SDS011;29301;47.620;19.560;2023-05-29T08:31:45;0.10;;;0.10;;
43696;SDS011;29301;47.620;19.560;2023-05-29T08:34:11;0.10;;;0.10;;
43696;SDS011;29301;47.620;19.560;2023-05-29T08:36:37;0.10;;;0.10;;
43696;SDS011;29301;47.620;19.560;2023-05-29T08:39:03;0.10;;;0.10;;
43696;SDS011;29301;47.620;19.560;2023-05-29T08:41:41;0.10;;;0.10;;
43696;SDS011;29301;47.620;19.560;2023-05-29T08:44:16;0.10;;;0.10;;
43696;SDS011;29301;47.620;19.560;2023-05-29T08:46:48;0.10;;;0.10;;
43696;SDS011;29301;47.620;19.560;2023-05-29T08:49:19;0.13;;;0.13;;
43696;SDS011;29301;47.620;19.560;2023-05-29T08:51:47;0.10;;;0.10;;
43696;SDS011;29301;47.620;19.560;2023-05-29T08:54:18;0.10;;;0.10;;
43696;SDS011;29301;47.620;19.560;2023-05-29T08:56:45;0.10;;;0.10;;
43696;SDS011;29301;47.620;19.560;2023-05-29T08:59:11;0.20;;;0.20;;
43696;SDS011;29301;47.620;19.560;2023-05-29T09:01:37;0.17;;;0.17;;
43696;SDS011;29301;47.620;19.560;2023-05-29T09:04:04;0.10;;;0.10;;
43696;SDS011;29301;47.620;19.560;2023-05-29T09:06:30;0.10;;;0.10;;
43696;SDS011;29301;47.620;19.560;2023-05-29T09:08:56;0.10;;;0.10;;
43696;SDS011;29301;47.620;19.560;2023-05-29T09:11:22;0.15;;;0.15;;
43696;SDS011;29301;47.620;19.560;2023-05-29T09:13:48;0.20;;;0.20;;
43696;SDS011;29301;47.620;19.560;2023-05-29T09:16:16;0.20;;;0.20;;
43696;SDS011;29301;47.620;19.560;2023-05-29T09:18:42;0.10;;;0.10;;
43696;SDS011;29301;47.620;19.560;2023-05-29T09:21:11;0.10;;;0.10;;
43696;SDS011;29301;47.620;19.560;2023-05-29T09:23:51;0.20;;;0.20;;
43696;SDS011;29301;47.620;19.560;2023-05-29T09:26:18;0.10;;;0.10;;
43696;SDS011;29301;47.620;19.560;2023-05-29T09:28:48;0.10;;;0.10;;
43696;SDS011;29301;47.620;19.560;2023-05-29T09:31:14;0.10;;;0.10;;
43696;SDS011;29301;47.620;19.560;2023-05-29T09:33:49;0.15;;;0.15;;
43696;SDS011;29301;47.620;19.560;2023-05-29T09:36:19;0.10;;;0.10;;
43696;SDS011;29301;47.620;19.560;2023-05-29T09:38:47;0.10;;;0.10;;
43696;SDS011;29301;47.620;19.560;2023-05-29T09:41:12;0.20;;;0.20;;
43696;SDS011;29301;47.620;19.560;2023-05-29T09:43:38;0.10;;;0.10;;
43696;SDS011;29301;47.620;19.560;2023-05-29T09:46:05;0.10;;;0.10;;
43696;SDS011;29301;47.620;19.560;2023-05-29T09:48:34;0.10;;;0.10;;
43696;SDS011;29301;47.620;19.560;2023-05-29T09:51:00;0.10;;;0.10;;
43696;SDS011;29301;47.620;19.560;2023-05-29T09:53:28;0.20;;;0.20;;
43696;SDS011;29301;47.620;19.560;2023-05-29T09:55:56;0.13;;;0.13;;
43696;SDS011;29301;47.620;19.560;2023-05-29T09:58:24;0.10;;;0.10;;
43696;SDS011;29301;47.620;19.560;2023-05-29T10:00:50;0.10;;;0.10;;
43696;SDS011;29301;47.620;19.560;2023-05-29T10:03:17;0.10;;;0.10;;
43696;SDS011;29301;47.620;19.560;2023-05-29T10:05:47;0.10;;;0.10;;
43696;SDS011;29301;47.620;19.560;2023-05-29T10:08:18;0.10;;;0.10;;
43696;SDS011;29301;47.620;19.560;2023-05-29T10:10:49;0.20;;;0.20;;
43696;SDS011;29301;47.620;19.560;2023-05-29T10:13:23;0.10;;;0.10;;
43696;SDS011;29301;47.620;19.560;2023-05-29T10:15:51;0.10;;;0.10;;
43696;SDS011;29301;47.620;19.560;2023-05-29T10:18:20;0.10;;;0.10;;
43696;SDS011;29301;47.620;19.560;2023-05-29T10:20:54;0.10;;;0.10;;
43696;SDS011;29301;47.620;19.560;2023-05-29T10:23:23;0.10;;;0.10;;
43696;SDS011;29301;47.620;19.560;2023-05-29T10:25:51;0.10;;;0.10;;
43696;SDS011;29301;47.620;19.560;2023-05-29T10:28:21;0.10;;;0.10;;
43696;SDS011;29301;47.620;19.560;2023-05-29T10:36:22;0.10;;;0.10;;
43696;SDS011;29301;47.620;19.560;2023-05-29T10:38:51;0.10;;;0.10;;
43696;SDS011;29301;47.620;19.560;2023-05-29T10:49:19;0.10;;;0.10;;
43696;SDS011;29301;47.620;19.560;2023-05-29T10:51:45;0.10;;;0.10;;
43696;SDS011;29301;47.620;19.560;2023-05-29T10:54:12;0.10;;;0.10;;
43696;SDS011;29301;47.620;19.560;2023-05-29T10:56:39;0.10;;;0.10;;
43696;SDS011;29301;47.620;19.560;2023-05-29T10:59:06;0.10;;;0.10;;
43696;SDS011;29301;47.620;19.560;2023-05-29T11:01:33;0.10;;;0.10;;
43696;SDS011;29301;47.620;19.560;2023-05-29T11:04:36;0.10;;;0.10;;
43696;SDS011;29301;47.620;19.560;2023-05-29T11:06:57;0.10;;;0.10;;
43696;SDS011;29301;47.620;19.560;2023-05-29T11:14:50;0.10;;;0.10;;
43696;SDS011;29301;47.620;19.560;2023-05-29T11:18:05;0.10;;;0.10;;
43696;SDS011;29301;47.620;19.560;2023-05-29T11:23:03;0.15;;;0.15;;
43696;SDS011;29301;47.620;19.560;2023-05-29T11:25:36;0.10;;;0.10;;
43696;SDS011;29301;47.620;19.560;2023-05-29T11:28:05;0.10;;;0.10;;
43696;SDS011;29301;47.620;19.560;2023-05-29T11:30:41;0.10;;;0.10;;
43696;SDS011;29301;47.620;19.560;2023-05-29T11:33:23;0.10;;;0.10;;
43696;SDS011;29301;47.620;19.560;2023-05-29T11:35:53;0.10;;;0.10;;
43696;SDS011;29301;47.620;19.560;2023-05-29T11:38:27;0.10;;;0.10;;
43696;SDS011;29301;47.620;19.560;2023-05-29T11:40:54;0.10;;;0.10;;
43696;SDS011;29301;47.620;19.560;2023-05-29T11:43:20;0.10;;;0.10;;
43696;SDS011;29301;47.620;19.560;2023-05-29T11:45:46;0.10;;;0.10;;
43696;SDS011;29301;47.620;19.560;2023-05-29T11:48:12;0.10;;;0.10;;
43696;SDS011;29301;47.620;19.560;2023-05-29T11:50:38;0.20;;;0.20;;
43696;SDS011;29301;47.620;19.560;2023-05-29T11:53:05;0.10;;;0.10;;
43696;SDS011;29301;47.620;19.560;2023-05-29T11:55:32;0.10;;;0.10;;
43696;SDS011;29301;47.620;19.560;2023-05-29T11:58:01;0.10;;;0.10;;
43696;SDS011;29301;47.620;19.560;2023-05-29T12:00:32;0.10;;;0.10;;
43696;SDS011;29301;47.620;19.560;2023-05-29T12:03:02;0.10;;;0.10;;
43696;SDS011;29301;47.620;19.560;2023-05-29T12:05:30;0.10;;;0.10;;
43696;SDS011;29301;47.620;19.560;2023-05-29T12:07:57;0.10;;;0.10;;
43696;SDS011;29301;47.620;19.560;2023-05-29T12:10:26;0.10;;;0.10;;
43696;SDS011;29301;47.620;19.560;2023-05-29T12:12:56;0.10;;;0.10;;
43696;SDS011;29301;47.620;19.560;2023-05-29T12:15:23;0.10;;;0.10;;
43696;SDS011;29301;47.620;19.560;2023-05-29T12:17:49;0.10;;;0.10;;
43696;SDS011;29301;47.620;19.560;2023-05-29T12:20:16;0.10;;;0.10;;
43696;SDS011;29301;47.620;19.560;2023-05-29T12:22:43;0.10;;;0.10;;
43696;SDS011;29301;47.620;19.560;2023-05-29T12:25:10;0.10;;;0.10;;
43696;SDS011;29301;47.620;19.560;2023-05-29T12:27:47;0.10;;;0.10;;
43696;SDS011;29301;47.620;19.560;2023-05-29T12:30:14;0.10;;;0.10;;
43696;SDS011;29301;47.620;19.560;2023-05-29T12:32:50;0.10;;;0.10;;
43696;SDS011;29301;47.620;19.560;2023-05-29T12:35:20;0.10;;;0.10;;
43696;SDS011;29301;47.620;19.560;2023-05-29T12:37:57;0.10;;;0.10;;
43696;SDS011;29301;47.620;19.560;2023-05-29T12:40:26;0.10;;;0.10;;
43696;SDS011;29301;47.620;19.560;2023-05-29T12:42:56;0.10;;;0.10;;
43696;SDS011;29301;47.620;19.560;2023-05-29T12:45:26;0.10;;;0.10;;
43696;SDS011;29301;47.620;19.560;2023-05-29T12:47:54;0.10;;;0.10;;
43696;SDS011;29301;47.620;19.560;2023-05-29T12:50:22;0.10;;;0.10;;
43696;SDS011;29301;47.620;19.560;2023-05-29T12:52:56;0.10;;;0.10;;
43696;SDS011;29301;47.620;19.560;2023-05-29T12:55:24;0.10;;;0.10;;
43696;SDS011;29301;47.620;19.560;2023-05-29T12:57:51;0.10;;;0.10;;
43696;SDS011;29301;47.620;19.560;2023-05-29T13:00:17;0.10;;;0.10;;
43696;SDS011;29301;47.620;19.560;2023-05-29T13:02:44;0.10;;;0.10;;
43696;SDS011;29301;47.620;19.560;2023-05-29T13:05:11;0.10;;;0.10;;
43696;SDS011;29301;47.620;19.560;2023-05-29T13:07:36;0.10;;;0.10;;
43696;SDS011;29301;47.620;19.560;2023-05-29T13:10:02;0.10;;;0.10;;
43696;SDS011;29301;47.620;19.560;2023-05-29T13:12:28;0.10;;;0.10;;
43696;SDS011;29301;47.620;19.560;2023-05-29T13:14:54;0.10;;;0.10;;
43696;SDS011;29301;47.620;19.560;2023-05-29T13:17:22;0.10;;;0.10;;
43696;SDS011;29301;47.620;19.560;2023-05-29T13:19:48;0.10;;;0.10;;
43696;SDS011;29301;47.620;19.560;2023-05-29T13:22:14;0.10;;;0.10;;
43696;SDS011;29301;47.620;19.560;2023-05-29T13:24:40;0.10;;;0.10;;
43696;SDS011;29301;47.620;19.560;2023-05-29T13:27:06;0.10;;;0.10;;
43696;SDS011;29301;47.620;19.560;2023-05-29T13:29:32;0.10;;;0.10;;
43696;SDS011;29301;47.620;19.560;2023-05-29T13:31:57;0.10;;;0.10;;
43696;SDS011;29301;47.620;19.560;2023-05-29T13:34:23;0.10;;;0.10;;
43696;SDS011;29301;47.620;19.560;2023-05-29T13:36:53;0.10;;;0.10;;
43696;SDS011;29301;47.620;19.560;2023-05-29T13:39:22;0.10;;;0.10;;
43696;SDS011;29301;47.620;19.560;2023-05-29T13:41:48;0.10;;;0.10;;
43696;SDS011;29301;47.620;19.560;2023-05-29T13:44:13;0.10;;;0.10;;
43696;SDS011;29301;47.620;19.560;2023-05-29T13:46:39;0.10;;;0.10;;
43696;SDS011;29301;47.620;19.560;2023-05-29T13:49:05;0.10;;;0.10;;
43696;SDS011;29301;47.620;19.560;2023-05-29T13:51:32;0.10;;;0.10;;
43696;SDS011;29301;47.620;19.560;2023-05-29T13:53:58;0.10;;;0.10;;
43696;SDS011;29301;47.620;19.560;2023-05-29T13:56:24;0.10;;;0.10;;
43696;SDS011;29301;47.620;19.560;2023-05-29T13:58:52;0.10;;;0.10;;
43696;SDS011;29301;47.620;19.560;2023-05-29T14:01:17;0.10;;;0.10;;
43696;SDS011;29301;47.620;19.560;2023-05-29T14:03:46;0.10;;;0.10;;
43696;SDS011;29301;47.620;19.560;2023-05-29T14:06:12;0.10;;;0.10;;
43696;SDS011;29301;47.620;19.560;2023-05-29T14:08:38;0.10;;;0.10;;
43696;SDS011;29301;47.620;19.560;2023-05-29T14:11:03;0.10;;;0.10;;
43696;SDS011;29301;47.620;19.560;2023-05-29T14:13:29;0.10;;;0.10;;
43696;SDS011;29301;47.620;19.560;2023-05-29T14:15:55;0.20;;;0.20;;
43696;SDS011;29301;47.620;19.560;2023-05-29T14:18:22;0.10;;;0.10;;
43696;SDS011;29301;47.620;19.560;2023-05-29T14:20:48;0.10;;;0.10;;
43696;SDS011;29301;47.620;19.560;2023-05-29T14:23:17;0.10;;;0.10;;
43696;SDS011;29301;47.620;19.560;2023-05-29T14:25:43;0.10;;;0.10;;
43696;SDS011;29301;47.620;19.560;2023-05-29T14:28:08;0.10;;;0.10;;
43696;SDS011;29301;47.620;19.560;2023-05-29T14:30:35;0.10;;;0.10;;
43696;SDS011;29301;47.620;19.560;2023-05-29T14:33:02;0.10;;;0.10;;
43696;SDS011;29301;47.620;19.560;2023-05-29T14:35:27;0.10;;;0.10;;
43696;SDS011;29301;47.620;19.560;2023-05-29T14:37:54;0.10;;;0.10;;
43696;SDS011;29301;47.620;19.560;2023-05-29T14:40:19;0.13;;;0.13;;
43696;SDS011;29301;47.620;19.560;2023-05-29T14:42:45;0.10;;;0.10;;
43696;SDS011;29301;47.620;19.560;2023-05-29T14:45:11;0.10;;;0.10;;
43696;SDS011;29301;47.620;19.560;2023-05-29T14:47:36;0.10;;;0.10;;
43696;SDS011;29301;47.620;19.560;2023-05-29T14:50:02;0.10;;;0.10;;
43696;SDS011;29301;47.620;19.560;2023-05-29T14:52:28;0.10;;;0.10;;
43696;SDS011;29301;47.620;19.560;2023-05-29T14:54:55;0.10;;;0.10;;
43696;SDS011;29301;47.620;19.560;2023-05-29T14:57:20;0.10;;;0.10;;
43696;SDS011;29301;47.620;19.560;2023-05-29T14:59:46;0.10;;;0.10;;
43696;SDS011;29301;47.620;19.560;2023-05-29T15:02:11;0.10;;;0.10;;
43696;SDS011;29301;47.620;19.560;2023-05-29T15:04:37;0.10;;;0.10;;